sensor_id;sensor_type;location;lat;lon;timestamp;P1;durP1;ratioP1;P2;durP2;ratioP2
75297;SDS011;63896;45.990;18.688;2023-04-03T00:02:24;10.80;;;6.07;;
75297;SDS011;63896;45.990;18.688;2023-04-03T00:05:27;10.20;;;5.50;;
75297;SDS011;63896;45.990;18.688;2023-04-03T00:08:29;11.52;;;6.15;;
75297;SDS011;63896;45.990;18.688;2023-04-03T00:11:33;10.18;;;5.45;;
75297;SDS011;63896;45.990;18.688;2023-04-03T00:14:36;10.07;;;5.70;;
75297;SDS011;63896;45.990;18.688;2023-04-03T00:17:38;9.77;;;5.47;;
75297;SDS011;63896;45.990;18.688;2023-04-03T00:20:41;9.40;;;5.72;;
75297;SDS011;63896;45.990;18.688;2023-04-03T00:23:45;11.90;;;5.97;;
75297;SDS011;63896;45.990;18.688;2023-04-03T00:26:48;11.00;;;5.90;;
75297;SDS011;63896;45.990;18.688;2023-04-03T00:29:51;13.83;;;5.30;;
75297;SDS011;63896;45.990;18.688;2023-04-03T00:32:54;16.30;;;8.00;;
75297;SDS011;63896;45.990;18.688;2023-04-03T00:35:57;10.88;;;5.78;;
75297;SDS011;63896;45.990;18.688;2023-04-03T00:39:00;9.02;;;4.75;;
75297;SDS011;63896;45.990;18.688;2023-04-03T00:42:03;8.48;;;5.00;;
75297;SDS011;63896;45.990;18.688;2023-04-03T00:48:29;9.55;;;5.00;;
75297;SDS011;63896;45.990;18.688;2023-04-03T00:51:34;10.07;;;5.20;;
75297;SDS011;63896;45.990;18.688;2023-04-03T00:54:38;10.13;;;4.75;;
75297;SDS011;63896;45.990;18.688;2023-04-03T00:57:43;9.38;;;5.05;;
75297;SDS011;63896;45.990;18.688;2023-04-03T01:00:50;9.73;;;5.57;;
75297;SDS011;63896;45.990;18.688;2023-04-03T01:04:01;10.25;;;5.00;;
75297;SDS011;63896;45.990;18.688;2023-04-03T01:07:06;9.65;;;5.22;;
75297;SDS011;63896;45.990;18.688;2023-04-03T01:10:15;9.27;;;5.03;;
75297;SDS011;63896;45.990;18.688;2023-04-03T01:13:24;14.23;;;5.60;;
75297;SDS011;63896;45.990;18.688;2023-04-03T01:16:30;9.03;;;5.53;;
75297;SDS011;63896;45.990;18.688;2023-04-03T01:19:34;8.15;;;4.90;;
75297;SDS011;63896;45.990;18.688;2023-04-03T01:22:56;9.15;;;5.40;;
75297;SDS011;63896;45.990;18.688;2023-04-03T01:26:08;9.38;;;5.28;;
75297;SDS011;63896;45.990;18.688;2023-04-03T01:29:14;10.50;;;4.97;;
75297;SDS011;63896;45.990;18.688;2023-04-03T01:32:17;7.13;;;4.53;;
75297;SDS011;63896;45.990;18.688;2023-04-03T01:35:20;9.38;;;5.43;;
75297;SDS011;63896;45.990;18.688;2023-04-03T01:38:23;8.60;;;4.03;;
75297;SDS011;63896;45.990;18.688;2023-04-03T01:41:28;12.15;;;6.03;;
75297;SDS011;63896;45.990;18.688;2023-04-03T01:44:38;9.30;;;5.45;;
75297;SDS011;63896;45.990;18.688;2023-04-03T01:47:41;11.03;;;5.67;;
75297;SDS011;63896;45.990;18.688;2023-04-03T01:50:44;9.70;;;5.57;;
75297;SDS011;63896;45.990;18.688;2023-04-03T01:53:47;10.70;;;5.90;;
75297;SDS011;63896;45.990;18.688;2023-04-03T01:56:50;8.93;;;5.25;;
75297;SDS011;63896;45.990;18.688;2023-04-03T01:59:54;10.33;;;4.90;;
75297;SDS011;63896;45.990;18.688;2023-04-03T02:02:57;11.47;;;5.27;;
75297;SDS011;63896;45.990;18.688;2023-04-03T02:06:00;7.53;;;4.50;;
75297;SDS011;63896;45.990;18.688;2023-04-03T02:09:04;9.05;;;4.80;;
75297;SDS011;63896;45.990;18.688;2023-04-03T02:12:07;7.53;;;4.15;;
75297;SDS011;63896;45.990;18.688;2023-04-03T02:15:10;11.05;;;4.60;;
75297;SDS011;63896;45.990;18.688;2023-04-03T02:18:13;9.47;;;5.00;;
75297;SDS011;63896;45.990;18.688;2023-04-03T02:21:17;9.18;;;4.88;;
75297;SDS011;63896;45.990;18.688;2023-04-03T02:24:20;8.15;;;4.88;;
75297;SDS011;63896;45.990;18.688;2023-04-03T02:27:23;9.77;;;3.97;;
75297;SDS011;63896;45.990;18.688;2023-04-03T02:30:26;7.10;;;3.92;;
75297;SDS011;63896;45.990;18.688;2023-04-03T02:33:29;7.60;;;4.27;;
75297;SDS011;63896;45.990;18.688;2023-04-03T02:36:33;8.20;;;3.83;;
75297;SDS011;63896;45.990;18.688;2023-04-03T02:39:39;8.45;;;4.30;;
75297;SDS011;63896;45.990;18.688;2023-04-03T02:42:42;7.93;;;4.15;;
75297;SDS011;63896;45.990;18.688;2023-04-03T02:45:45;6.95;;;3.90;;
75297;SDS011;63896;45.990;18.688;2023-04-03T02:48:48;8.43;;;3.70;;
75297;SDS011;63896;45.990;18.688;2023-04-03T02:51:51;7.57;;;4.60;;
75297;SDS011;63896;45.990;18.688;2023-04-03T02:54:54;6.75;;;4.03;;
75297;SDS011;63896;45.990;18.688;2023-04-03T02:57:57;7.82;;;4.40;;
75297;SDS011;63896;45.990;18.688;2023-04-03T03:01:00;7.20;;;4.00;;
75297;SDS011;63896;45.990;18.688;2023-04-03T03:04:03;8.07;;;3.77;;
75297;SDS011;63896;45.990;18.688;2023-04-03T03:07:06;12.30;;;3.90;;
75297;SDS011;63896;45.990;18.688;2023-04-03T03:10:09;8.38;;;4.07;;
75297;SDS011;63896;45.990;18.688;2023-04-03T03:13:12;6.25;;;3.70;;
75297;SDS011;63896;45.990;18.688;2023-04-03T03:16:15;7.10;;;4.20;;
75297;SDS011;63896;45.990;18.688;2023-04-03T03:19:18;8.20;;;4.70;;
75297;SDS011;63896;45.990;18.688;2023-04-03T03:22:21;6.63;;;3.83;;
75297;SDS011;63896;45.990;18.688;2023-04-03T03:25:24;6.13;;;3.60;;
75297;SDS011;63896;45.990;18.688;2023-04-03T03:28:26;7.90;;;4.35;;
75297;SDS011;63896;45.990;18.688;2023-04-03T03:31:29;6.78;;;3.72;;
75297;SDS011;63896;45.990;18.688;2023-04-03T03:34:33;6.10;;;3.63;;
75297;SDS011;63896;45.990;18.688;2023-04-03T03:37:35;6.95;;;4.13;;
75297;SDS011;63896;45.990;18.688;2023-04-03T03:40:39;7.55;;;4.20;;
75297;SDS011;63896;45.990;18.688;2023-04-03T03:43:42;7.88;;;4.15;;
75297;SDS011;63896;45.990;18.688;2023-04-03T03:46:48;9.80;;;5.27;;
75297;SDS011;63896;45.990;18.688;2023-04-03T03:49:51;5.57;;;3.20;;
75297;SDS011;63896;45.990;18.688;2023-04-03T03:52:54;10.38;;;4.60;;
75297;SDS011;63896;45.990;18.688;2023-04-03T03:55:57;6.75;;;4.20;;
75297;SDS011;63896;45.990;18.688;2023-04-03T03:59:02;7.68;;;4.75;;
75297;SDS011;63896;45.990;18.688;2023-04-03T04:02:06;7.88;;;3.78;;
75297;SDS011;63896;45.990;18.688;2023-04-03T04:05:09;6.80;;;4.33;;
75297;SDS011;63896;45.990;18.688;2023-04-03T04:08:13;7.65;;;4.47;;
75297;SDS011;63896;45.990;18.688;2023-04-03T04:11:16;7.22;;;4.28;;
75297;SDS011;63896;45.990;18.688;2023-04-03T04:14:21;9.23;;;4.40;;
75297;SDS011;63896;45.990;18.688;2023-04-03T04:17:24;6.63;;;3.85;;
75297;SDS011;63896;45.990;18.688;2023-04-03T04:20:27;11.37;;;4.70;;
75297;SDS011;63896;45.990;18.688;2023-04-03T04:23:30;8.85;;;3.80;;
75297;SDS011;63896;45.990;18.688;2023-04-03T04:26:34;7.10;;;4.25;;
75297;SDS011;63896;45.990;18.688;2023-04-03T04:29:37;6.80;;;4.28;;
75297;SDS011;63896;45.990;18.688;2023-04-03T04:32:42;8.20;;;4.30;;
75297;SDS011;63896;45.990;18.688;2023-04-03T04:35:47;6.83;;;3.80;;
75297;SDS011;63896;45.990;18.688;2023-04-03T04:38:53;8.07;;;3.85;;
75297;SDS011;63896;45.990;18.688;2023-04-03T04:41:58;7.80;;;3.88;;
75297;SDS011;63896;45.990;18.688;2023-04-03T04:45:04;6.70;;;3.95;;
75297;SDS011;63896;45.990;18.688;2023-04-03T04:48:08;7.17;;;4.03;;
75297;SDS011;63896;45.990;18.688;2023-04-03T04:51:12;5.03;;;3.23;;
75297;SDS011;63896;45.990;18.688;2023-04-03T04:54:16;7.13;;;4.32;;
75297;SDS011;63896;45.990;18.688;2023-04-03T04:57:21;8.35;;;3.88;;
75297;SDS011;63896;45.990;18.688;2023-04-03T05:00:25;8.02;;;4.07;;
75297;SDS011;63896;45.990;18.688;2023-04-03T05:03:28;7.23;;;4.47;;
75297;SDS011;63896;45.990;18.688;2023-04-03T05:06:32;7.17;;;4.03;;
75297;SDS011;63896;45.990;18.688;2023-04-03T05:09:40;8.02;;;4.60;;
75297;SDS011;63896;45.990;18.688;2023-04-03T05:12:46;7.07;;;4.15;;
75297;SDS011;63896;45.990;18.688;2023-04-03T05:15:49;7.30;;;4.13;;
75297;SDS011;63896;45.990;18.688;2023-04-03T05:18:52;9.93;;;5.43;;
75297;SDS011;63896;45.990;18.688;2023-04-03T05:21:57;11.27;;;5.33;;
75297;SDS011;63896;45.990;18.688;2023-04-03T05:25:00;9.32;;;4.95;;
75297;SDS011;63896;45.990;18.688;2023-04-03T05:28:04;9.32;;;4.80;;
75297;SDS011;63896;45.990;18.688;2023-04-03T05:31:07;11.65;;;5.60;;
75297;SDS011;63896;45.990;18.688;2023-04-03T05:34:11;10.23;;;5.75;;
75297;SDS011;63896;45.990;18.688;2023-04-03T05:37:15;10.37;;;4.10;;
75297;SDS011;63896;45.990;18.688;2023-04-03T05:40:18;6.63;;;4.60;;
75297;SDS011;63896;45.990;18.688;2023-04-03T05:43:25;8.10;;;4.68;;
75297;SDS011;63896;45.990;18.688;2023-04-03T05:46:28;7.82;;;4.18;;
75297;SDS011;63896;45.990;18.688;2023-04-03T05:49:37;7.93;;;4.67;;
75297;SDS011;63896;45.990;18.688;2023-04-03T05:52:45;7.77;;;5.43;;
75297;SDS011;63896;45.990;18.688;2023-04-03T05:55:51;7.55;;;4.22;;
75297;SDS011;63896;45.990;18.688;2023-04-03T05:58:54;8.30;;;4.22;;
75297;SDS011;63896;45.990;18.688;2023-04-03T06:01:58;5.45;;;2.90;;
75297;SDS011;63896;45.990;18.688;2023-04-03T06:05:01;7.05;;;4.00;;
75297;SDS011;63896;45.990;18.688;2023-04-03T06:08:05;9.33;;;4.83;;
75297;SDS011;63896;45.990;18.688;2023-04-03T06:11:08;5.57;;;3.63;;
75297;SDS011;63896;45.990;18.688;2023-04-03T06:14:11;6.32;;;3.90;;
75297;SDS011;63896;45.990;18.688;2023-04-03T06:17:15;7.47;;;3.58;;
75297;SDS011;63896;45.990;18.688;2023-04-03T06:20:20;6.22;;;3.90;;
75297;SDS011;63896;45.990;18.688;2023-04-03T06:23:24;8.53;;;4.17;;
75297;SDS011;63896;45.990;18.688;2023-04-03T06:26:28;3.97;;;2.55;;
75297;SDS011;63896;45.990;18.688;2023-04-03T06:29:31;8.05;;;4.10;;
75297;SDS011;63896;45.990;18.688;2023-04-03T06:32:35;7.53;;;4.10;;
75297;SDS011;63896;45.990;18.688;2023-04-03T06:35:38;5.05;;;3.50;;
75297;SDS011;63896;45.990;18.688;2023-04-03T06:38:42;6.07;;;3.53;;
75297;SDS011;63896;45.990;18.688;2023-04-03T06:41:45;6.00;;;3.22;;
75297;SDS011;63896;45.990;18.688;2023-04-03T06:44:48;6.10;;;3.80;;
75297;SDS011;63896;45.990;18.688;2023-04-03T06:47:51;6.15;;;3.50;;
75297;SDS011;63896;45.990;18.688;2023-04-03T06:50:57;6.53;;;3.35;;
75297;SDS011;63896;45.990;18.688;2023-04-03T06:54:00;5.60;;;3.47;;
75297;SDS011;63896;45.990;18.688;2023-04-03T06:57:05;5.53;;;3.85;;
75297;SDS011;63896;45.990;18.688;2023-04-03T07:00:10;5.32;;;3.40;;
75297;SDS011;63896;45.990;18.688;2023-04-03T07:03:14;4.35;;;3.00;;
75297;SDS011;63896;45.990;18.688;2023-04-03T07:06:18;5.55;;;3.40;;
75297;SDS011;63896;45.990;18.688;2023-04-03T07:09:22;5.17;;;3.47;;
75297;SDS011;63896;45.990;18.688;2023-04-03T07:12:25;5.35;;;3.58;;
75297;SDS011;63896;45.990;18.688;2023-04-03T07:15:29;6.10;;;4.03;;
75297;SDS011;63896;45.990;18.688;2023-04-03T07:18:32;5.45;;;3.65;;
75297;SDS011;63896;45.990;18.688;2023-04-03T07:21:36;5.53;;;3.15;;
75297;SDS011;63896;45.990;18.688;2023-04-03T07:24:40;7.77;;;3.40;;
75297;SDS011;63896;45.990;18.688;2023-04-03T07:27:42;6.70;;;3.75;;
75297;SDS011;63896;45.990;18.688;2023-04-03T07:30:46;6.55;;;3.75;;
75297;SDS011;63896;45.990;18.688;2023-04-03T07:33:50;5.93;;;3.50;;
75297;SDS011;63896;45.990;18.688;2023-04-03T07:36:53;4.70;;;3.15;;
75297;SDS011;63896;45.990;18.688;2023-04-03T07:39:57;5.73;;;3.67;;
75297;SDS011;63896;45.990;18.688;2023-04-03T07:43:01;4.80;;;3.25;;
75297;SDS011;63896;45.990;18.688;2023-04-03T07:46:04;5.90;;;3.55;;
75297;SDS011;63896;45.990;18.688;2023-04-03T07:49:08;5.20;;;3.53;;
75297;SDS011;63896;45.990;18.688;2023-04-03T07:52:11;4.72;;;3.13;;
75297;SDS011;63896;45.990;18.688;2023-04-03T07:55:14;5.97;;;3.87;;
75297;SDS011;63896;45.990;18.688;2023-04-03T07:58:18;6.82;;;3.72;;
75297;SDS011;63896;45.990;18.688;2023-04-03T08:01:21;5.07;;;3.70;;
75297;SDS011;63896;45.990;18.688;2023-04-03T08:04:28;8.32;;;4.00;;
75297;SDS011;63896;45.990;18.688;2023-04-03T08:07:33;9.80;;;3.80;;
75297;SDS011;63896;45.990;18.688;2023-04-03T08:10:35;5.90;;;3.60;;
75297;SDS011;63896;45.990;18.688;2023-04-03T08:13:38;6.32;;;4.20;;
75297;SDS011;63896;45.990;18.688;2023-04-03T08:16:44;6.57;;;3.65;;
75297;SDS011;63896;45.990;18.688;2023-04-03T08:19:49;8.43;;;3.85;;
75297;SDS011;63896;45.990;18.688;2023-04-03T08:22:52;6.53;;;3.67;;
75297;SDS011;63896;45.990;18.688;2023-04-03T08:25:56;5.23;;;3.70;;
75297;SDS011;63896;45.990;18.688;2023-04-03T08:29:00;5.57;;;4.30;;
75297;SDS011;63896;45.990;18.688;2023-04-03T08:32:04;6.38;;;3.78;;
75297;SDS011;63896;45.990;18.688;2023-04-03T08:35:08;5.57;;;3.58;;
75297;SDS011;63896;45.990;18.688;2023-04-03T08:38:12;7.80;;;3.33;;
75297;SDS011;63896;45.990;18.688;2023-04-03T08:48:39;5.20;;;3.63;;
75297;SDS011;63896;45.990;18.688;2023-04-03T08:51:46;5.38;;;3.55;;
75297;SDS011;63896;45.990;18.688;2023-04-03T08:54:55;5.45;;;3.17;;
75297;SDS011;63896;45.990;18.688;2023-04-03T09:03:34;5.00;;;3.75;;
75297;SDS011;63896;45.990;18.688;2023-04-03T09:06:45;6.55;;;3.70;;
75297;SDS011;63896;45.990;18.688;2023-04-03T09:09:55;6.43;;;4.32;;
75297;SDS011;63896;45.990;18.688;2023-04-03T09:16:16;7.37;;;4.33;;
75297;SDS011;63896;45.990;18.688;2023-04-03T09:22:40;6.40;;;3.80;;
75297;SDS011;63896;45.990;18.688;2023-04-03T09:25:54;5.97;;;4.22;;
75297;SDS011;63896;45.990;18.688;2023-04-03T09:29:08;5.97;;;4.43;;
75297;SDS011;63896;45.990;18.688;2023-04-03T09:35:29;7.18;;;4.10;;
75297;SDS011;63896;45.990;18.688;2023-04-03T09:39:02;8.57;;;4.25;;
75297;SDS011;63896;45.990;18.688;2023-04-03T09:42:17;6.68;;;4.55;;
75297;SDS011;63896;45.990;18.688;2023-04-03T09:45:29;7.30;;;4.78;;
75297;SDS011;63896;45.990;18.688;2023-04-03T09:48:39;4.50;;;3.70;;
75297;SDS011;63896;45.990;18.688;2023-04-03T09:55:42;8.52;;;4.70;;
75297;SDS011;63896;45.990;18.688;2023-04-03T09:58:48;4.75;;;3.55;;
75297;SDS011;63896;45.990;18.688;2023-04-03T10:05:46;6.33;;;3.47;;
75297;SDS011;63896;45.990;18.688;2023-04-03T10:09:06;6.25;;;3.95;;
75297;SDS011;63896;45.990;18.688;2023-04-03T10:12:19;7.18;;;4.85;;
75297;SDS011;63896;45.990;18.688;2023-04-03T10:15:22;6.72;;;5.00;;
75297;SDS011;63896;45.990;18.688;2023-04-03T10:18:40;6.50;;;4.43;;
75297;SDS011;63896;45.990;18.688;2023-04-03T10:21:50;6.53;;;4.20;;
75297;SDS011;63896;45.990;18.688;2023-04-03T10:46:52;6.90;;;4.80;;
75297;SDS011;63896;45.990;18.688;2023-04-03T10:57:23;5.00;;;3.60;;
75297;SDS011;63896;45.990;18.688;2023-04-03T11:00:44;8.23;;;4.38;;
75297;SDS011;63896;45.990;18.688;2023-04-03T11:03:54;6.20;;;4.30;;
75297;SDS011;63896;45.990;18.688;2023-04-03T11:07:07;7.07;;;4.68;;
75297;SDS011;63896;45.990;18.688;2023-04-03T11:10:28;6.85;;;3.88;;
75297;SDS011;63896;45.990;18.688;2023-04-03T11:13:34;8.13;;;4.07;;
75297;SDS011;63896;45.990;18.688;2023-04-03T11:16:48;6.95;;;3.92;;
75297;SDS011;63896;45.990;18.688;2023-04-03T11:23:26;5.78;;;3.97;;
75297;SDS011;63896;45.990;18.688;2023-04-03T11:26:50;7.72;;;4.15;;
75297;SDS011;63896;45.990;18.688;2023-04-03T11:29:59;5.70;;;3.93;;
75297;SDS011;63896;45.990;18.688;2023-04-03T11:33:20;8.48;;;4.40;;
75297;SDS011;63896;45.990;18.688;2023-04-03T11:36:58;5.22;;;3.40;;
75297;SDS011;63896;45.990;18.688;2023-04-03T11:46:59;8.70;;;4.90;;
75297;SDS011;63896;45.990;18.688;2023-04-03T11:50:03;9.52;;;4.63;;
75297;SDS011;63896;45.990;18.688;2023-04-03T11:59:25;6.18;;;3.90;;
75297;SDS011;63896;45.990;18.688;2023-04-03T12:02:36;5.23;;;4.03;;
75297;SDS011;63896;45.990;18.688;2023-04-03T12:05:43;5.82;;;3.80;;
75297;SDS011;63896;45.990;18.688;2023-04-03T12:11:54;6.30;;;3.28;;
75297;SDS011;63896;45.990;18.688;2023-04-03T12:24:51;6.57;;;4.13;;
75297;SDS011;63896;45.990;18.688;2023-04-03T12:27:55;7.22;;;4.07;;
75297;SDS011;63896;45.990;18.688;2023-04-03T12:31:00;8.15;;;4.30;;
75297;SDS011;63896;45.990;18.688;2023-04-03T12:41:23;9.40;;;3.85;;
75297;SDS011;63896;45.990;18.688;2023-04-03T12:47:56;12.30;;;4.65;;
75297;SDS011;63896;45.990;18.688;2023-04-03T12:50:59;6.97;;;4.37;;
75297;SDS011;63896;45.990;18.688;2023-04-03T12:54:16;6.72;;;4.80;;
75297;SDS011;63896;45.990;18.688;2023-04-03T12:57:26;5.65;;;3.80;;
75297;SDS011;63896;45.990;18.688;2023-04-03T13:03:35;10.98;;;4.55;;
75297;SDS011;63896;45.990;18.688;2023-04-03T13:06:43;6.50;;;3.47;;
75297;SDS011;63896;45.990;18.688;2023-04-03T13:09:54;5.75;;;3.30;;
75297;SDS011;63896;45.990;18.688;2023-04-03T13:13:13;7.00;;;3.78;;
75297;SDS011;63896;45.990;18.688;2023-04-03T13:16:17;6.57;;;3.17;;
75297;SDS011;63896;45.990;18.688;2023-04-03T13:19:22;5.82;;;4.10;;
75297;SDS011;63896;45.990;18.688;2023-04-03T13:22:34;8.87;;;3.67;;
75297;SDS011;63896;45.990;18.688;2023-04-03T13:25:43;4.43;;;3.28;;
75297;SDS011;63896;45.990;18.688;2023-04-03T13:28:48;6.00;;;3.67;;
75297;SDS011;63896;45.990;18.688;2023-04-03T13:31:55;6.07;;;2.97;;
75297;SDS011;63896;45.990;18.688;2023-04-03T13:35:00;6.82;;;4.00;;
75297;SDS011;63896;45.990;18.688;2023-04-03T13:38:22;5.80;;;3.20;;
75297;SDS011;63896;45.990;18.688;2023-04-03T13:41:35;6.82;;;4.22;;
75297;SDS011;63896;45.990;18.688;2023-04-03T13:44:40;5.35;;;3.65;;
75297;SDS011;63896;45.990;18.688;2023-04-03T13:47:43;9.13;;;3.15;;
75297;SDS011;63896;45.990;18.688;2023-04-03T13:50:57;5.85;;;3.85;;
75297;SDS011;63896;45.990;18.688;2023-04-03T13:54:19;5.23;;;3.63;;
75297;SDS011;63896;45.990;18.688;2023-04-03T13:57:25;5.90;;;3.80;;
75297;SDS011;63896;45.990;18.688;2023-04-03T14:03:40;6.28;;;3.65;;
75297;SDS011;63896;45.990;18.688;2023-04-03T14:07:05;4.50;;;3.25;;
75297;SDS011;63896;45.990;18.688;2023-04-03T14:10:08;9.73;;;5.27;;
75297;SDS011;63896;45.990;18.688;2023-04-03T14:13:12;8.93;;;4.80;;
75297;SDS011;63896;45.990;18.688;2023-04-03T14:16:19;9.20;;;4.60;;
75297;SDS011;63896;45.990;18.688;2023-04-03T14:19:32;10.90;;;4.35;;
75297;SDS011;63896;45.990;18.688;2023-04-03T14:22:36;8.02;;;3.60;;
75297;SDS011;63896;45.990;18.688;2023-04-03T14:25:39;6.87;;;4.33;;
75297;SDS011;63896;45.990;18.688;2023-04-03T14:28:47;4.72;;;3.63;;
75297;SDS011;63896;45.990;18.688;2023-04-03T14:31:54;5.53;;;3.47;;
75297;SDS011;63896;45.990;18.688;2023-04-03T14:35:09;7.60;;;3.47;;
75297;SDS011;63896;45.990;18.688;2023-04-03T14:38:13;8.43;;;3.70;;
75297;SDS011;63896;45.990;18.688;2023-04-03T14:41:25;11.30;;;4.50;;
75297;SDS011;63896;45.990;18.688;2023-04-03T14:44:29;12.90;;;4.32;;
75297;SDS011;63896;45.990;18.688;2023-04-03T14:47:44;12.05;;;5.00;;
75297;SDS011;63896;45.990;18.688;2023-04-03T14:50:51;9.38;;;4.72;;
75297;SDS011;63896;45.990;18.688;2023-04-03T14:54:11;7.15;;;3.90;;
75297;SDS011;63896;45.990;18.688;2023-04-03T14:57:17;6.40;;;3.43;;
75297;SDS011;63896;45.990;18.688;2023-04-03T15:00:21;7.93;;;4.22;;
75297;SDS011;63896;45.990;18.688;2023-04-03T15:03:24;9.40;;;4.55;;
75297;SDS011;63896;45.990;18.688;2023-04-03T15:06:35;10.55;;;5.28;;
75297;SDS011;63896;45.990;18.688;2023-04-03T15:09:38;6.55;;;4.15;;
75297;SDS011;63896;45.990;18.688;2023-04-03T15:12:42;7.73;;;4.73;;
75297;SDS011;63896;45.990;18.688;2023-04-03T15:15:45;9.82;;;5.65;;
75297;SDS011;63896;45.990;18.688;2023-04-03T15:18:48;11.13;;;4.70;;
75297;SDS011;63896;45.990;18.688;2023-04-03T15:21:51;8.40;;;4.85;;
75297;SDS011;63896;45.990;18.688;2023-04-03T15:24:54;8.48;;;4.88;;
75297;SDS011;63896;45.990;18.688;2023-04-03T15:27:57;8.77;;;4.80;;
75297;SDS011;63896;45.990;18.688;2023-04-03T15:31:01;6.90;;;4.38;;
75297;SDS011;63896;45.990;18.688;2023-04-03T15:34:04;9.98;;;4.47;;
75297;SDS011;63896;45.990;18.688;2023-04-03T15:37:06;12.18;;;5.95;;
75297;SDS011;63896;45.990;18.688;2023-04-03T15:40:09;11.07;;;5.55;;
75297;SDS011;63896;45.990;18.688;2023-04-03T15:43:13;10.03;;;5.80;;
75297;SDS011;63896;45.990;18.688;2023-04-03T15:46:17;12.27;;;6.03;;
75297;SDS011;63896;45.990;18.688;2023-04-03T15:49:20;9.38;;;5.53;;
75297;SDS011;63896;45.990;18.688;2023-04-03T15:52:24;7.18;;;4.32;;
75297;SDS011;63896;45.990;18.688;2023-04-03T15:55:31;8.40;;;4.25;;
75297;SDS011;63896;45.990;18.688;2023-04-03T15:58:37;9.60;;;5.30;;
75297;SDS011;63896;45.990;18.688;2023-04-03T16:01:40;9.93;;;5.32;;
75297;SDS011;63896;45.990;18.688;2023-04-03T16:04:44;8.98;;;4.57;;
75297;SDS011;63896;45.990;18.688;2023-04-03T16:07:47;6.07;;;3.83;;
75297;SDS011;63896;45.990;18.688;2023-04-03T16:10:50;8.15;;;4.50;;
75297;SDS011;63896;45.990;18.688;2023-04-03T16:13:53;11.63;;;4.87;;
75297;SDS011;63896;45.990;18.688;2023-04-03T16:16:57;13.98;;;5.00;;
75297;SDS011;63896;45.990;18.688;2023-04-03T16:20:02;14.57;;;4.50;;
75297;SDS011;63896;45.990;18.688;2023-04-03T16:23:06;8.73;;;4.22;;
75297;SDS011;63896;45.990;18.688;2023-04-03T16:26:09;12.43;;;4.82;;
75297;SDS011;63896;45.990;18.688;2023-04-03T16:29:12;16.70;;;4.53;;
75297;SDS011;63896;45.990;18.688;2023-04-03T16:32:15;6.75;;;4.07;;
75297;SDS011;63896;45.990;18.688;2023-04-03T16:35:18;9.23;;;4.57;;
75297;SDS011;63896;45.990;18.688;2023-04-03T16:38:21;9.80;;;4.97;;
75297;SDS011;63896;45.990;18.688;2023-04-03T16:41:24;10.02;;;4.60;;
75297;SDS011;63896;45.990;18.688;2023-04-03T16:44:27;8.87;;;4.23;;
75297;SDS011;63896;45.990;18.688;2023-04-03T16:47:30;8.63;;;4.13;;
75297;SDS011;63896;45.990;18.688;2023-04-03T16:50:33;9.60;;;4.10;;
75297;SDS011;63896;45.990;18.688;2023-04-03T16:53:36;11.57;;;4.05;;
75297;SDS011;63896;45.990;18.688;2023-04-03T16:56:39;11.50;;;5.68;;
75297;SDS011;63896;45.990;18.688;2023-04-03T16:59:42;11.10;;;4.87;;
75297;SDS011;63896;45.990;18.688;2023-04-03T17:02:45;7.18;;;4.53;;
75297;SDS011;63896;45.990;18.688;2023-04-03T17:05:48;8.25;;;4.50;;
75297;SDS011;63896;45.990;18.688;2023-04-03T17:08:51;9.50;;;4.45;;
75297;SDS011;63896;45.990;18.688;2023-04-03T17:12:03;10.05;;;4.57;;
75297;SDS011;63896;45.990;18.688;2023-04-03T17:15:06;10.30;;;4.03;;
75297;SDS011;63896;45.990;18.688;2023-04-03T17:18:10;5.13;;;3.25;;
75297;SDS011;63896;45.990;18.688;2023-04-03T17:21:13;8.30;;;3.78;;
75297;SDS011;63896;45.990;18.688;2023-04-03T17:24:17;9.05;;;4.10;;
75297;SDS011;63896;45.990;18.688;2023-04-03T17:27:20;6.80;;;4.40;;
75297;SDS011;63896;45.990;18.688;2023-04-03T17:30:23;11.33;;;4.27;;
75297;SDS011;63896;45.990;18.688;2023-04-03T17:33:27;6.60;;;3.88;;
75297;SDS011;63896;45.990;18.688;2023-04-03T17:36:33;6.80;;;3.30;;
75297;SDS011;63896;45.990;18.688;2023-04-03T17:39:36;11.52;;;4.43;;
75297;SDS011;63896;45.990;18.688;2023-04-03T17:42:39;6.95;;;3.40;;
75297;SDS011;63896;45.990;18.688;2023-04-03T17:45:42;6.80;;;2.97;;
75297;SDS011;63896;45.990;18.688;2023-04-03T17:48:46;8.15;;;4.05;;
75297;SDS011;63896;45.990;18.688;2023-04-03T17:51:48;15.40;;;3.58;;
75297;SDS011;63896;45.990;18.688;2023-04-03T17:54:51;9.38;;;3.58;;
75297;SDS011;63896;45.990;18.688;2023-04-03T17:57:54;7.10;;;3.30;;
75297;SDS011;63896;45.990;18.688;2023-04-03T18:00:57;5.80;;;3.47;;
75297;SDS011;63896;45.990;18.688;2023-04-03T18:04:01;11.48;;;3.88;;
75297;SDS011;63896;45.990;18.688;2023-04-03T18:07:06;12.02;;;3.70;;
75297;SDS011;63896;45.990;18.688;2023-04-03T18:10:11;5.78;;;3.30;;
75297;SDS011;63896;45.990;18.688;2023-04-03T18:13:16;9.73;;;3.10;;
75297;SDS011;63896;45.990;18.688;2023-04-03T18:16:19;4.13;;;2.13;;
75297;SDS011;63896;45.990;18.688;2023-04-03T18:19:22;8.13;;;2.47;;
75297;SDS011;63896;45.990;18.688;2023-04-03T18:22:29;8.18;;;3.72;;
75297;SDS011;63896;45.990;18.688;2023-04-03T18:25:32;5.88;;;2.80;;
75297;SDS011;63896;45.990;18.688;2023-04-03T18:28:35;7.20;;;2.78;;
75297;SDS011;63896;45.990;18.688;2023-04-03T18:31:40;5.80;;;2.80;;
75297;SDS011;63896;45.990;18.688;2023-04-03T18:34:47;7.43;;;3.10;;
75297;SDS011;63896;45.990;18.688;2023-04-03T18:37:51;8.68;;;3.47;;
75297;SDS011;63896;45.990;18.688;2023-04-03T18:40:54;6.63;;;3.20;;
75297;SDS011;63896;45.990;18.688;2023-04-03T18:43:58;7.38;;;2.70;;
75297;SDS011;63896;45.990;18.688;2023-04-03T18:47:05;6.10;;;3.20;;
75297;SDS011;63896;45.990;18.688;2023-04-03T18:50:09;9.30;;;3.50;;
75297;SDS011;63896;45.990;18.688;2023-04-03T18:53:14;9.15;;;3.60;;
75297;SDS011;63896;45.990;18.688;2023-04-03T18:56:17;7.68;;;2.58;;
75297;SDS011;63896;45.990;18.688;2023-04-03T18:59:20;12.43;;;3.60;;
75297;SDS011;63896;45.990;18.688;2023-04-03T19:02:23;14.13;;;5.03;;
75297;SDS011;63896;45.990;18.688;2023-04-03T19:05:27;5.97;;;3.10;;
75297;SDS011;63896;45.990;18.688;2023-04-03T19:08:30;4.93;;;2.00;;
75297;SDS011;63896;45.990;18.688;2023-04-03T19:11:33;8.40;;;2.22;;
75297;SDS011;63896;45.990;18.688;2023-04-03T19:14:38;12.02;;;2.05;;
75297;SDS011;63896;45.990;18.688;2023-04-03T19:17:41;7.93;;;2.20;;
75297;SDS011;63896;45.990;18.688;2023-04-03T19:20:44;10.02;;;4.43;;
75297;SDS011;63896;45.990;18.688;2023-04-03T19:23:47;9.65;;;4.57;;
75297;SDS011;63896;45.990;18.688;2023-04-03T19:26:50;8.88;;;2.90;;
75297;SDS011;63896;45.990;18.688;2023-04-03T19:29:53;4.95;;;2.00;;
75297;SDS011;63896;45.990;18.688;2023-04-03T19:32:56;8.17;;;3.70;;
75297;SDS011;63896;45.990;18.688;2023-04-03T19:36:03;13.60;;;6.05;;
75297;SDS011;63896;45.990;18.688;2023-04-03T19:39:06;10.05;;;3.50;;
75297;SDS011;63896;45.990;18.688;2023-04-03T19:42:10;5.60;;;2.55;;
75297;SDS011;63896;45.990;18.688;2023-04-03T19:45:14;2.97;;;1.73;;
75297;SDS011;63896;45.990;18.688;2023-04-03T19:48:20;10.30;;;4.20;;
75297;SDS011;63896;45.990;18.688;2023-04-03T19:51:22;19.58;;;8.50;;
75297;SDS011;63896;45.990;18.688;2023-04-03T19:54:26;12.20;;;5.82;;
75297;SDS011;63896;45.990;18.688;2023-04-03T19:57:29;9.25;;;2.95;;
75297;SDS011;63896;45.990;18.688;2023-04-03T20:00:33;7.40;;;2.17;;
75297;SDS011;63896;45.990;18.688;2023-04-03T20:03:36;10.70;;;2.60;;
75297;SDS011;63896;45.990;18.688;2023-04-03T20:06:39;6.78;;;2.25;;